createdAt,value
2023-02-28T00:00:51.567Z,8.48
2023-02-28T00:03:18.373Z,4.20
2023-02-28T00:05:45.218Z,4.05
2023-02-28T00:08:12.629Z,7.90
2023-02-28T00:10:39.663Z,7.88
2023-02-28T00:13:07.906Z,7.72
2023-02-28T00:15:35.190Z,4.15
2023-02-28T00:18:02.497Z,5.05
2023-02-28T00:20:29.215Z,7.13
2023-02-28T00:22:56.050Z,4.97
2023-02-28T00:25:25.273Z,9.27
2023-02-28T00:27:52.428Z,4.30
2023-02-28T00:30:21.765Z,5.82
2023-02-28T00:32:49.096Z,7.35
2023-02-28T00:35:16.582Z,7.43
2023-02-28T00:37:43.885Z,3.78
2023-02-28T00:40:12.405Z,5.50
2023-02-28T00:42:39.842Z,2.80
2023-02-28T00:45:07.194Z,7.60
2023-02-28T00:47:33.996Z,5.57
2023-02-28T00:50:01.340Z,6.40
2023-02-28T00:52:28.146Z,3.70
2023-02-28T00:54:55.390Z,5.07
2023-02-28T00:57:22.191Z,10.48
2023-02-28T00:59:49.139Z,4.88
2023-02-28T01:02:16.007Z,14.50
2023-02-28T01:04:42.865Z,4.20
2023-02-28T01:07:09.763Z,4.20
2023-02-28T01:09:36.552Z,6.22
2023-02-28T01:12:03.432Z,5.57
2023-02-28T01:14:30.168Z,6.53
2023-02-28T01:16:56.954Z,4.53
2023-02-28T01:19:23.689Z,7.85
2023-02-28T01:21:50.428Z,5.60
2023-02-28T01:24:17.110Z,10.05
2023-02-28T01:26:43.920Z,7.05
2023-02-28T01:29:10.788Z,6.32
2023-02-28T01:31:37.821Z,4.68
2023-02-28T01:34:04.836Z,7.13
2023-02-28T01:36:31.763Z,10.77
2023-02-28T01:38:58.461Z,6.35
2023-02-28T01:41:32.261Z,5.30
2023-02-28T01:44:04.278Z,17.13
2023-02-28T01:46:37.243Z,8.85
2023-02-28T01:49:15.465Z,7.68
2023-02-28T01:51:53.129Z,3.90
2023-02-28T01:54:31.630Z,9.88
2023-02-28T01:57:13.425Z,8.35
2023-02-28T01:59:47.205Z,5.80
2023-02-28T02:02:15.261Z,6.47
2023-02-28T02:04:53.712Z,6.68
2023-02-28T02:07:22.337Z,6.03
2023-02-28T02:09:49.074Z,4.13
2023-02-28T02:12:25.345Z,4.70
2023-02-28T02:15:17.043Z,11.93
2023-02-28T02:17:48.560Z,16.45
2023-02-28T02:20:47.730Z,6.63
2023-02-28T02:23:51.966Z,6.85
2023-02-28T02:26:30.576Z,5.30
2023-02-28T02:29:24.500Z,4.53
2023-02-28T02:32:35.984Z,4.78
2023-02-28T02:35:20.468Z,10.52
2023-02-28T02:37:49.942Z,6.30
2023-02-28T02:40:27.071Z,10.07
2023-02-28T02:43:26.562Z,10.25
2023-02-28T02:46:27.431Z,7.40
2023-02-28T02:48:57.395Z,6.60
2023-02-28T02:51:25.670Z,7.30
2023-02-28T02:54:01.236Z,7.57
2023-02-28T02:56:32.388Z,5.30
2023-02-28T02:59:08.714Z,5.35
2023-02-28T03:01:37.451Z,6.35
2023-02-28T03:04:08.312Z,8.75
2023-02-28T03:06:36.338Z,11.48
2023-02-28T03:09:03.903Z,7.25
2023-02-28T03:11:31.706Z,11.13
2023-02-28T03:14:05.301Z,8.02
2023-02-28T03:16:50.920Z,7.28
2023-02-28T03:19:48.363Z,8.13
2023-02-28T03:22:40.698Z,12.80
2023-02-28T03:25:34.374Z,10.43
2023-02-28T03:28:17.030Z,11.45
2023-02-28T03:30:54.749Z,7.38
2023-02-28T03:33:42.261Z,8.35
2023-02-28T03:36:14.892Z,7.88
2023-02-28T03:38:44.547Z,7.65
2023-02-28T03:41:22.310Z,8.32
2023-02-28T03:43:56.471Z,12.63
2023-02-28T03:46:26.759Z,7.78
2023-02-28T03:49:33.005Z,9.50
2023-02-28T03:52:01.474Z,10.63
2023-02-28T03:54:42.301Z,14.38
2023-02-28T03:57:16.217Z,7.47
2023-02-28T03:59:51.983Z,8.45
2023-02-28T04:02:19.543Z,7.47
2023-02-28T04:04:49.516Z,7.25
2023-02-28T04:07:16.898Z,7.32
2023-02-28T04:09:44.223Z,10.80
2023-02-28T04:12:11.064Z,9.48
2023-02-28T04:14:37.777Z,8.20
2023-02-28T04:17:04.600Z,9.50
2023-02-28T04:19:31.375Z,13.90
2023-02-28T04:21:58.149Z,9.80
2023-02-28T04:24:27.734Z,12.68
2023-02-28T04:26:56.556Z,7.97
2023-02-28T04:29:28.845Z,7.00
2023-02-28T04:31:58.998Z,9.77
2023-02-28T04:34:30.786Z,6.95
2023-02-28T04:37:11.944Z,9.77
2023-02-28T04:39:40.059Z,13.57
2023-02-28T04:42:06.995Z,10.02
2023-02-28T04:44:33.764Z,8.80
2023-02-28T04:47:00.858Z,10.43
2023-02-28T04:49:27.600Z,12.65
2023-02-28T04:51:54.351Z,10.93
2023-02-28T04:54:21.281Z,14.82
2023-02-28T04:56:50.677Z,8.20
2023-02-28T04:59:17.681Z,10.70
2023-02-28T05:01:49.318Z,13.32
2023-02-28T05:04:16.358Z,11.60
2023-02-28T05:06:43.404Z,11.00
2023-02-28T05:09:12.609Z,8.00
2023-02-28T05:11:40.577Z,9.15
2023-02-28T05:14:16.551Z,9.23
2023-02-28T05:16:43.872Z,10.45
2023-02-28T05:19:10.857Z,10.70
2023-02-28T05:21:53.007Z,10.55
2023-02-28T05:24:25.978Z,8.77
2023-02-28T05:26:54.760Z,11.48
2023-02-28T05:29:21.920Z,13.10
2023-02-28T05:31:49.345Z,10.77
2023-02-28T05:34:17.094Z,9.25
2023-02-28T05:36:44.368Z,9.73
2023-02-28T05:39:13.703Z,9.00
2023-02-28T05:41:42.481Z,14.63
2023-02-28T05:44:09.664Z,12.90
2023-02-28T05:46:36.496Z,9.95
2023-02-28T05:49:03.554Z,11.80
2023-02-28T05:51:30.958Z,7.90
2023-02-28T05:54:01.315Z,11.23
2023-02-28T05:56:28.064Z,15.20
2023-02-28T05:58:54.845Z,8.95
2023-02-28T06:01:50.523Z,9.25
2023-02-28T06:04:31.035Z,10.93
2023-02-28T06:06:59.032Z,13.77
2023-02-28T06:09:26.049Z,14.70
2023-02-28T06:11:53.003Z,10.60
2023-02-28T06:14:20.955Z,9.90
2023-02-28T06:16:48.730Z,12.25
2023-02-28T06:19:16.471Z,9.70
2023-02-28T06:21:43.670Z,9.13
2023-02-28T06:24:10.862Z,8.73
2023-02-28T06:26:37.655Z,10.02
2023-02-28T06:29:04.405Z,10.23
2023-02-28T06:31:31.625Z,8.48
2023-02-28T06:33:58.647Z,8.43
2023-02-28T06:36:25.363Z,9.45
2023-02-28T06:38:55.666Z,10.20
2023-02-28T06:41:26.834Z,11.20
2023-02-28T06:43:54.147Z,12.27
2023-02-28T06:46:21.381Z,13.10
2023-02-28T06:48:48.257Z,12.52
2023-02-28T06:51:25.226Z,10.18
2023-02-28T06:53:52.267Z,10.43
2023-02-28T06:56:21.231Z,11.82
2023-02-28T06:58:49.714Z,9.65
2023-02-28T07:01:16.719Z,10.90
2023-02-28T07:03:43.554Z,12.50
2023-02-28T07:06:10.323Z,12.88
2023-02-28T07:08:37.375Z,15.68
2023-02-28T07:11:04.915Z,11.90
2023-02-28T07:13:31.688Z,15.48
2023-02-28T07:16:01.379Z,10.48
2023-02-28T07:18:28.778Z,12.68
2023-02-28T07:20:55.972Z,11.65
2023-02-28T07:23:23.373Z,12.88
2023-02-28T07:25:51.440Z,15.85
2023-02-28T07:28:18.343Z,10.60
2023-02-28T07:30:45.079Z,11.88
2023-02-28T07:33:11.890Z,12.13
2023-02-28T07:35:38.791Z,11.40
2023-02-28T07:38:05.567Z,11.75
2023-02-28T07:40:32.743Z,12.77
2023-02-28T07:43:04.385Z,12.30
2023-02-28T07:45:32.604Z,11.13
2023-02-28T07:47:59.449Z,12.70
2023-02-28T07:50:27.207Z,14.77
2023-02-28T07:52:53.998Z,14.90
2023-02-28T07:55:20.841Z,14.02
2023-02-28T07:57:47.618Z,12.70
2023-02-28T08:00:14.898Z,13.13
2023-02-28T08:02:41.853Z,11.93
2023-02-28T08:05:09.111Z,10.82
2023-02-28T08:07:36.013Z,11.30
2023-02-28T08:10:02.810Z,12.93
2023-02-28T08:12:29.527Z,10.52
2023-02-28T08:14:56.356Z,15.55
2023-02-28T08:17:23.095Z,12.10
2023-02-28T08:19:50.405Z,18.02
2023-02-28T08:22:17.236Z,13.98
2023-02-28T08:24:44.726Z,12.05
2023-02-28T08:27:11.803Z,19.90
2023-02-28T08:29:39.361Z,15.45
2023-02-28T08:32:12.584Z,12.90
2023-02-28T08:34:48.182Z,12.73
2023-02-28T08:37:15.047Z,12.25
2023-02-28T08:39:41.853Z,14.75
2023-02-28T08:42:08.557Z,14.18
2023-02-28T08:44:35.467Z,15.10
2023-02-28T08:47:02.274Z,20.75
2023-02-28T08:49:29.668Z,19.05
2023-02-28T08:51:58.147Z,13.98
2023-02-28T08:54:25.622Z,17.23
2023-02-28T08:56:52.496Z,13.90
2023-02-28T08:59:19.258Z,10.20
2023-02-28T09:01:46.055Z,15.00
2023-02-28T09:04:14.558Z,14.32
2023-02-28T09:06:45.443Z,13.32
2023-02-28T09:09:12.334Z,12.80
2023-02-28T09:11:39.059Z,11.75
2023-02-28T09:14:05.827Z,13.00
2023-02-28T09:16:34.388Z,10.85
2023-02-28T09:19:01.953Z,11.98
2023-02-28T09:21:29.602Z,12.52
2023-02-28T09:23:56.558Z,14.90
2023-02-28T09:26:26.041Z,13.02
2023-02-28T09:28:53.834Z,13.75
2023-02-28T09:31:24.269Z,12.75
2023-02-28T09:33:52.470Z,14.23
2023-02-28T09:36:19.535Z,15.02
2023-02-28T09:38:48.756Z,15.65
2023-02-28T09:41:20.616Z,11.80
2023-02-28T09:43:52.815Z,13.55
2023-02-28T09:46:33.153Z,11.40
2023-02-28T09:49:04.310Z,11.10
2023-02-28T09:51:44.934Z,17.90
2023-02-28T09:54:19.969Z,14.73
2023-02-28T09:56:54.597Z,14.35
2023-02-28T09:59:50.181Z,10.93
2023-02-28T10:02:16.843Z,14.90
2023-02-28T10:05:06.257Z,15.60
2023-02-28T10:08:16.654Z,15.02
2023-02-28T10:10:50.632Z,16.70
2023-02-28T10:13:41.625Z,10.57
2023-02-28T10:16:26.361Z,14.10
2023-02-28T10:18:58.323Z,13.75
2023-02-28T10:21:31.224Z,11.57
2023-02-28T10:24:05.508Z,11.77
2023-02-28T10:26:33.963Z,10.77
2023-02-28T10:29:01.107Z,13.30
2023-02-28T10:31:28.215Z,13.88
2023-02-28T10:33:55.385Z,13.75
2023-02-28T10:36:22.855Z,12.10
2023-02-28T10:38:51.389Z,9.85
2023-02-28T10:41:35.857Z,12.30
2023-02-28T10:44:21.958Z,17.80
2023-02-28T10:46:50.370Z,8.73
2023-02-28T10:49:30.301Z,9.88
2023-02-28T10:52:00.003Z,12.20
2023-02-28T10:54:36.154Z,8.97
2023-02-28T10:57:17.493Z,13.23
2023-02-28T10:59:44.372Z,13.03
2023-02-28T11:05:29.145Z,11.57
2023-02-28T11:08:00.305Z,8.70
2023-02-28T11:10:31.656Z,9.63
2023-02-28T11:13:00.871Z,10.33
2023-02-28T11:15:34.036Z,11.10
2023-02-28T11:18:21.231Z,11.60
2023-02-28T11:20:55.063Z,9.80
2023-02-28T11:23:24.300Z,9.83
2023-02-28T11:25:58.118Z,10.00
2023-02-28T11:28:28.645Z,11.53
2023-02-28T11:31:14.867Z,10.40
2023-02-28T11:33:49.717Z,9.73
2023-02-28T11:36:21.173Z,8.27
2023-02-28T11:38:50.457Z,8.40
2023-02-28T11:41:52.709Z,11.40
2023-02-28T11:44:22.426Z,10.37
2023-02-28T11:46:54.461Z,6.63
2023-02-28T11:49:33.606Z,9.37
2023-02-28T11:52:25.436Z,9.23
2023-02-28T11:55:15.681Z,10.97
2023-02-28T11:57:52.493Z,11.50
2023-02-28T12:00:31.464Z,12.50
2023-02-28T12:03:23.081Z,11.13
2023-02-28T12:06:14.684Z,8.53
2023-02-28T12:09:01.153Z,10.37
2023-02-28T12:11:49.669Z,7.90
2023-02-28T12:14:50.232Z,8.50
2023-02-28T12:17:50.028Z,8.90
2023-02-28T12:20:24.469Z,9.60
2023-02-28T12:23:23.295Z,12.67
2023-02-28T12:26:10.795Z,9.80
2023-02-28T12:28:48.687Z,7.73
2023-02-28T12:31:26.642Z,9.30
2023-02-28T12:33:58.322Z,9.30
2023-02-28T12:36:27.224Z,6.57
2023-02-28T12:39:11.463Z,13.33
2023-02-28T12:41:47.154Z,10.03
2023-02-28T12:44:50.593Z,7.30
2023-02-28T12:47:19.053Z,9.00
2023-02-28T12:49:59.779Z,10.07
2023-02-28T12:52:44.003Z,11.30
2023-02-28T12:55:31.370Z,13.40
2023-02-28T12:58:13.402Z,10.50
2023-02-28T13:01:06.869Z,12.00
2023-02-28T13:04:07.763Z,7.83
2023-02-28T13:06:56.500Z,9.17
2023-02-28T13:09:23.336Z,10.00
2023-02-28T13:11:52.561Z,11.33
2023-02-28T13:14:24.711Z,10.77
2023-02-28T13:16:59.446Z,10.90
2023-02-28T13:19:35.377Z,10.53
2023-02-28T13:22:03.216Z,8.90
2023-02-28T13:24:39.116Z,11.47
2023-02-28T13:27:05.894Z,12.90
2023-02-28T13:29:35.051Z,13.40
2023-02-28T13:32:07.545Z,11.40
2023-02-28T13:34:59.832Z,7.83
2023-02-28T13:37:42.379Z,16.93
2023-02-28T13:40:12.128Z,9.67
2023-02-28T13:42:45.385Z,14.60
2023-02-28T13:45:12.035Z,6.90
2023-02-28T13:47:52.300Z,13.10
2023-02-28T13:50:38.494Z,11.87
2023-02-28T13:53:14.268Z,13.30
2023-02-28T13:56:05.520Z,7.90
2023-02-28T13:58:44.286Z,12.57
2023-02-28T14:01:14.298Z,8.50
2023-02-28T14:04:05.618Z,8.70
2023-02-28T14:06:34.323Z,8.90
2023-02-28T14:09:08.892Z,9.10
2023-02-28T14:11:38.759Z,12.13
2023-02-28T14:14:07.245Z,11.93
2023-02-28T14:16:50.610Z,8.80
2023-02-28T14:19:32.227Z,12.33
2023-02-28T14:22:10.940Z,9.23
2023-02-28T14:25:08.875Z,8.53
2023-02-28T14:27:57.392Z,14.20
2023-02-28T14:30:34.248Z,10.27
2023-02-28T14:33:31.827Z,12.53
2023-02-28T14:36:21.453Z,10.53
2023-02-28T14:38:56.503Z,10.27
2023-02-28T14:41:39.358Z,8.73
2023-02-28T14:44:32.875Z,11.13
2023-02-28T14:47:09.842Z,10.10
2023-02-28T14:49:46.785Z,10.90
2023-02-28T14:52:13.457Z,9.30
2023-02-28T14:54:41.208Z,11.27
2023-02-28T14:57:21.179Z,11.37
2023-02-28T14:59:47.963Z,18.53
2023-02-28T15:02:24.277Z,10.27
2023-02-28T15:04:59.737Z,19.07
2023-02-28T15:07:30.511Z,9.93
2023-02-28T15:10:18.715Z,20.83
2023-02-28T15:12:54.436Z,11.40
2023-02-28T15:15:28.160Z,10.93
2023-02-28T15:18:06.663Z,11.90
2023-02-28T15:20:34.281Z,12.17
2023-02-28T15:23:01.510Z,12.52
2023-02-28T15:25:28.524Z,18.00
2023-02-28T15:27:58.364Z,15.20
2023-02-28T15:30:31.363Z,10.27
2023-02-28T15:33:12.432Z,11.25
2023-02-28T15:35:39.494Z,12.25
2023-02-28T15:38:34.801Z,10.85
2023-02-28T15:41:01.609Z,10.23
2023-02-28T15:43:33.860Z,11.70
2023-02-28T15:46:05.601Z,14.43
2023-02-28T15:48:36.947Z,10.38
2023-02-28T15:51:34.419Z,12.20
2023-02-28T15:54:11.870Z,15.50
2023-02-28T15:56:44.846Z,12.30
2023-02-28T15:59:22.535Z,13.63
2023-02-28T16:02:22.180Z,13.25
2023-02-28T16:05:07.311Z,15.60
2023-02-28T16:07:36.081Z,18.08
2023-02-28T16:10:03.310Z,15.25
2023-02-28T16:12:32.286Z,13.05
2023-02-28T16:15:03.843Z,11.82
2023-02-28T16:17:35.156Z,15.32
2023-02-28T16:20:01.951Z,16.38
2023-02-28T16:22:28.747Z,15.20
2023-02-28T16:24:55.495Z,12.00
2023-02-28T16:27:43.409Z,12.45
2023-02-28T16:30:26.048Z,14.65
2023-02-28T16:32:55.334Z,10.90
2023-02-28T16:35:22.734Z,10.45
2023-02-28T16:37:51.362Z,14.13
2023-02-28T16:40:21.979Z,13.32
2023-02-28T16:42:51.919Z,14.45
2023-02-28T16:45:24.018Z,15.35
2023-02-28T16:47:51.020Z,14.27
2023-02-28T16:50:26.478Z,11.80
2023-02-28T16:52:53.415Z,14.98
2023-02-28T16:55:20.350Z,16.05
2023-02-28T16:57:52.996Z,14.13
2023-02-28T17:00:20.467Z,14.88
2023-02-28T17:02:47.512Z,13.30
2023-02-28T17:05:15.933Z,17.08
2023-02-28T17:07:43.807Z,16.85
2023-02-28T17:10:17.458Z,14.95
2023-02-28T17:12:44.476Z,15.90
2023-02-28T17:15:13.156Z,13.85
2023-02-28T17:17:40.599Z,15.82
2023-02-28T17:20:12.381Z,17.05
2023-02-28T17:22:39.776Z,20.60
2023-02-28T17:25:07.144Z,14.88
2023-02-28T17:27:33.922Z,17.52
2023-02-28T17:30:01.885Z,17.58
2023-02-28T17:32:28.715Z,15.80
2023-02-28T17:34:55.458Z,12.55
2023-02-28T17:37:22.269Z,14.57
2023-02-28T17:39:49.012Z,16.90
2023-02-28T17:42:15.686Z,16.73
2023-02-28T17:44:42.429Z,15.80
2023-02-28T17:47:12.832Z,14.38
2023-02-28T17:49:39.623Z,17.67
2023-02-28T17:52:06.313Z,15.25
2023-02-28T17:54:33.066Z,14.90
2023-02-28T17:56:59.878Z,14.35
2023-02-28T17:59:34.102Z,14.65
2023-02-28T18:02:01.938Z,15.38
2023-02-28T18:04:28.827Z,17.92
2023-02-28T18:06:56.878Z,16.63
2023-02-28T18:09:23.865Z,18.65
2023-02-28T18:11:52.217Z,18.33
2023-02-28T18:14:20.837Z,17.70
2023-02-28T18:16:47.893Z,15.02
2023-02-28T18:19:16.129Z,17.13
2023-02-28T18:21:46.941Z,17.05
2023-02-28T18:24:14.590Z,16.55
2023-02-28T18:26:42.565Z,18.20
2023-02-28T18:29:15.965Z,14.40
2023-02-28T18:31:42.738Z,16.00
2023-02-28T18:34:09.548Z,20.88
2023-02-28T18:36:36.334Z,18.88
2023-02-28T18:39:03.263Z,18.60
2023-02-28T18:41:30.112Z,19.33
2023-02-28T18:43:56.913Z,19.40
2023-02-28T18:46:23.824Z,17.90
2023-02-28T18:48:51.036Z,13.45
2023-02-28T18:51:21.053Z,24.83
2023-02-28T18:53:47.926Z,15.02
2023-02-28T18:56:20.886Z,21.58
2023-02-28T18:58:47.826Z,20.77
2023-02-28T19:01:21.054Z,15.68
2023-02-28T19:03:48.913Z,17.95
2023-02-28T19:06:16.760Z,17.52
2023-02-28T19:08:43.506Z,21.20
2023-02-28T19:11:12.149Z,20.35
2023-02-28T19:13:38.960Z,16.80
2023-02-28T19:16:08.367Z,19.48
2023-02-28T19:18:35.956Z,18.42
2023-02-28T19:21:02.984Z,17.35
2023-02-28T19:23:32.244Z,24.92
2023-02-28T19:25:58.989Z,19.42
2023-02-28T19:28:30.216Z,18.90
2023-02-28T19:30:57.054Z,20.25
2023-02-28T19:33:24.008Z,18.83
2023-02-28T19:35:50.816Z,23.65
2023-02-28T19:38:17.640Z,15.77
2023-02-28T19:40:44.467Z,20.42
2023-02-28T19:43:11.628Z,19.40
2023-02-28T19:45:38.949Z,18.58
2023-02-28T19:48:05.983Z,22.98
2023-02-28T19:50:32.701Z,18.58
2023-02-28T19:53:01.227Z,19.63
2023-02-28T19:55:28.001Z,18.83
2023-02-28T19:57:54.679Z,20.63
2023-02-28T20:00:21.660Z,25.23
2023-02-28T20:02:48.446Z,22.02
2023-02-28T20:05:15.173Z,21.95
2023-02-28T20:07:41.890Z,15.48
2023-02-28T20:10:09.480Z,20.85
2023-02-28T20:12:36.305Z,17.33
2023-02-28T20:15:03.329Z,20.85
2023-02-28T20:17:30.730Z,22.80
2023-02-28T20:19:57.429Z,19.67
2023-02-28T20:22:24.196Z,18.63
2023-02-28T20:24:51.031Z,16.30
2023-02-28T20:27:17.970Z,30.52
2023-02-28T20:29:44.725Z,19.27
2023-02-28T20:32:13.144Z,26.55
2023-02-28T20:34:39.967Z,14.85
2023-02-28T20:37:06.679Z,18.10
2023-02-28T20:39:33.413Z,18.88
2023-02-28T20:42:00.200Z,21.23
2023-02-28T20:44:26.922Z,19.48
2023-02-28T20:46:53.701Z,18.60
2023-02-28T20:49:20.521Z,15.55
2023-02-28T20:51:47.309Z,14.90
2023-02-28T20:54:16.238Z,20.17
2023-02-28T20:56:43.033Z,22.58
2023-02-28T20:59:13.248Z,26.98
2023-02-28T21:01:42.690Z,22.70
2023-02-28T21:04:09.442Z,16.13
2023-02-28T21:06:38.633Z,19.77
2023-02-28T21:09:09.800Z,19.02
2023-02-28T21:11:38.626Z,15.57
2023-02-28T21:14:09.523Z,19.08
2023-02-28T21:16:37.875Z,20.45
2023-02-28T21:19:05.299Z,18.48
2023-02-28T21:21:38.515Z,24.25
2023-02-28T21:24:06.391Z,19.85
2023-02-28T21:26:33.542Z,23.65
2023-02-28T21:29:01.946Z,16.98
2023-02-28T21:31:31.342Z,17.58
2023-02-28T21:33:59.771Z,25.17
2023-02-28T21:36:32.779Z,20.00
2023-02-28T21:39:03.054Z,23.05
2023-02-28T21:41:30.430Z,21.15
2023-02-28T21:43:57.520Z,21.20
2023-02-28T21:46:27.811Z,23.95
2023-02-28T21:48:55.932Z,21.63
2023-02-28T21:51:25.509Z,22.83
2023-02-28T21:53:52.272Z,18.92
2023-02-28T21:56:28.144Z,20.67
2023-02-28T21:59:00.238Z,21.70
2023-02-28T22:01:34.592Z,21.42
2023-02-28T22:04:03.155Z,17.63
2023-02-28T22:06:32.618Z,27.23
2023-02-28T22:09:02.127Z,22.08
2023-02-28T22:11:29.012Z,21.35
2023-02-28T22:13:57.303Z,22.38
2023-02-28T22:16:26.578Z,25.95
2023-02-28T22:18:54.669Z,17.63
2023-02-28T22:21:22.694Z,16.20
2023-02-28T22:23:49.848Z,19.25
2023-02-28T22:26:20.489Z,21.45
2023-02-28T22:28:47.568Z,27.30
2023-02-28T22:31:28.583Z,38.25
2023-02-28T22:33:58.920Z,30.55
2023-02-28T22:36:26.031Z,43.80
2023-02-28T22:38:53.545Z,36.25
2023-02-28T22:41:22.978Z,35.28
2023-02-28T22:43:55.771Z,27.50
2023-02-28T22:46:24.134Z,29.40
2023-02-28T22:48:51.403Z,29.88
2023-02-28T22:51:20.906Z,25.23
2023-02-28T22:53:49.815Z,23.08
2023-02-28T22:56:18.824Z,20.10
2023-02-28T22:58:50.720Z,25.63
2023-02-28T23:01:18.742Z,20.90
2023-02-28T23:03:45.684Z,21.75
2023-02-28T23:06:15.669Z,20.73
2023-02-28T23:08:43.675Z,22.80
2023-02-28T23:11:16.325Z,22.85
2023-02-28T23:13:43.028Z,31.67
2023-02-28T23:16:09.844Z,22.30
2023-02-28T23:18:36.703Z,35.15
2023-02-28T23:21:03.700Z,23.85
2023-02-28T23:23:30.437Z,25.15
2023-02-28T23:25:57.126Z,22.25
2023-02-28T23:28:23.807Z,29.42
2023-02-28T23:30:51.723Z,29.60
2023-02-28T23:33:18.478Z,27.52
2023-02-28T23:35:45.278Z,23.10
2023-02-28T23:38:12.012Z,24.95
2023-02-28T23:40:41.150Z,24.73
2023-02-28T23:43:07.904Z,22.52
2023-02-28T23:45:34.704Z,24.70
2023-02-28T23:48:01.700Z,23.55
2023-02-28T23:50:28.487Z,22.35
2023-02-28T23:52:55.453Z,24.92
2023-02-28T23:55:22.190Z,25.73
2023-02-28T23:57:48.979Z,25.83
